sensor_id;sensor_type;location;lat;lon;timestamp;P1;durP1;ratioP1;P2;durP2;ratioP2
10633;SDS011;5365;51.640;8.106;2024-01-15T00:00:16;8.75;;;3.33;;
10633;SDS011;5365;51.640;8.106;2024-01-15T00:03:18;3.85;;;3.33;;
10633;SDS011;5365;51.640;8.106;2024-01-15T00:06:20;9.88;;;4.38;;
10633;SDS011;5365;51.640;8.106;2024-01-15T00:09:22;4.15;;;1.95;;
10633;SDS011;5365;51.640;8.106;2024-01-15T00:12:23;18.38;;;7.93;;
10633;SDS011;5365;51.640;8.106;2024-01-15T00:15:25;7.53;;;4.15;;
10633;SDS011;5365;51.640;8.106;2024-01-15T00:18:29;26.13;;;10.40;;
10633;SDS011;5365;51.640;8.106;2024-01-15T00:21:31;14.30;;;5.88;;
10633;SDS011;5365;51.640;8.106;2024-01-15T00:24:33;9.60;;;5.95;;
10633;SDS011;5365;51.640;8.106;2024-01-15T00:27:35;20.42;;;9.30;;
10633;SDS011;5365;51.640;8.106;2024-01-15T00:30:36;9.55;;;4.80;;
10633;SDS011;5365;51.640;8.106;2024-01-15T00:33:38;29.33;;;11.90;;
10633;SDS011;5365;51.640;8.106;2024-01-15T00:36:40;16.00;;;7.85;;
10633;SDS011;5365;51.640;8.106;2024-01-15T00:39:41;8.43;;;4.18;;
10633;SDS011;5365;51.640;8.106;2024-01-15T00:42:43;24.88;;;6.88;;
10633;SDS011;5365;51.640;8.106;2024-01-15T00:45:45;16.50;;;6.10;;
10633;SDS011;5365;51.640;8.106;2024-01-15T00:48:47;7.18;;;4.47;;
10633;SDS011;5365;51.640;8.106;2024-01-15T00:51:48;6.38;;;4.50;;
10633;SDS011;5365;51.640;8.106;2024-01-15T00:54:50;6.93;;;4.43;;
10633;SDS011;5365;51.640;8.106;2024-01-15T00:57:52;7.18;;;3.55;;
10633;SDS011;5365;51.640;8.106;2024-01-15T01:00:53;20.85;;;8.23;;
10633;SDS011;5365;51.640;8.106;2024-01-15T01:03:55;25.63;;;11.07;;
10633;SDS011;5365;51.640;8.106;2024-01-15T01:06:57;7.05;;;4.28;;
10633;SDS011;5365;51.640;8.106;2024-01-15T01:09:58;7.68;;;3.75;;
10633;SDS011;5365;51.640;8.106;2024-01-15T01:13:00;13.48;;;7.57;;
10633;SDS011;5365;51.640;8.106;2024-01-15T01:16:02;15.10;;;6.60;;
10633;SDS011;5365;51.640;8.106;2024-01-15T01:19:05;11.45;;;5.15;;
10633;SDS011;5365;51.640;8.106;2024-01-15T01:22:07;20.15;;;8.18;;
10633;SDS011;5365;51.640;8.106;2024-01-15T01:25:08;3.13;;;2.88;;
10633;SDS011;5365;51.640;8.106;2024-01-15T01:28:10;20.48;;;8.18;;
10633;SDS011;5365;51.640;8.106;2024-01-15T01:31:12;8.68;;;6.30;;
10633;SDS011;5365;51.640;8.106;2024-01-15T01:34:14;10.05;;;5.40;;
10633;SDS011;5365;51.640;8.106;2024-01-15T01:37:16;6.03;;;3.92;;
10633;SDS011;5365;51.640;8.106;2024-01-15T01:40:17;41.63;;;14.30;;
10633;SDS011;5365;51.640;8.106;2024-01-15T01:43:19;11.70;;;6.28;;
10633;SDS011;5365;51.640;8.106;2024-01-15T01:46:21;23.73;;;10.43;;
10633;SDS011;5365;51.640;8.106;2024-01-15T01:49:22;18.88;;;8.02;;
10633;SDS011;5365;51.640;8.106;2024-01-15T01:52:24;12.93;;;6.63;;
10633;SDS011;5365;51.640;8.106;2024-01-15T01:55:26;17.10;;;7.70;;
10633;SDS011;5365;51.640;8.106;2024-01-15T01:58:29;10.52;;;4.28;;
10633;SDS011;5365;51.640;8.106;2024-01-15T02:01:31;14.15;;;4.68;;
10633;SDS011;5365;51.640;8.106;2024-01-15T02:04:33;29.65;;;11.18;;
10633;SDS011;5365;51.640;8.106;2024-01-15T02:07:37;23.75;;;7.65;;
10633;SDS011;5365;51.640;8.106;2024-01-15T02:10:39;9.65;;;3.97;;
10633;SDS011;5365;51.640;8.106;2024-01-15T02:13:41;18.88;;;7.40;;
10633;SDS011;5365;51.640;8.106;2024-01-15T02:16:42;8.07;;;4.80;;
10633;SDS011;5365;51.640;8.106;2024-01-15T02:19:44;21.25;;;8.15;;
10633;SDS011;5365;51.640;8.106;2024-01-15T02:22:46;5.55;;;3.25;;
10633;SDS011;5365;51.640;8.106;2024-01-15T02:25:47;20.90;;;10.38;;
10633;SDS011;5365;51.640;8.106;2024-01-15T02:28:49;18.55;;;7.72;;
10633;SDS011;5365;51.640;8.106;2024-01-15T02:31:51;28.98;;;8.77;;
10633;SDS011;5365;51.640;8.106;2024-01-15T02:34:53;9.82;;;6.05;;
10633;SDS011;5365;51.640;8.106;2024-01-15T02:37:55;21.40;;;8.38;;
10633;SDS011;5365;51.640;8.106;2024-01-15T02:40:57;22.38;;;9.30;;
10633;SDS011;5365;51.640;8.106;2024-01-15T02:43:59;32.15;;;11.55;;
10633;SDS011;5365;51.640;8.106;2024-01-15T02:47:00;8.43;;;4.80;;
10633;SDS011;5365;51.640;8.106;2024-01-15T02:50:02;24.65;;;8.35;;
10633;SDS011;5365;51.640;8.106;2024-01-15T02:53:04;6.55;;;4.47;;
10633;SDS011;5365;51.640;8.106;2024-01-15T02:56:06;19.90;;;7.63;;
10633;SDS011;5365;51.640;8.106;2024-01-15T02:59:08;15.25;;;8.10;;
10633;SDS011;5365;51.640;8.106;2024-01-15T03:02:10;24.38;;;6.03;;
10633;SDS011;5365;51.640;8.106;2024-01-15T03:05:11;8.82;;;4.72;;
10633;SDS011;5365;51.640;8.106;2024-01-15T03:08:13;8.30;;;4.10;;
10633;SDS011;5365;51.640;8.106;2024-01-15T03:11:15;12.18;;;5.03;;
10633;SDS011;5365;51.640;8.106;2024-01-15T03:14:16;9.63;;;4.68;;
10633;SDS011;5365;51.640;8.106;2024-01-15T03:17:18;15.45;;;6.00;;
10633;SDS011;5365;51.640;8.106;2024-01-15T03:20:20;12.48;;;5.25;;
10633;SDS011;5365;51.640;8.106;2024-01-15T03:23:21;25.23;;;9.40;;
10633;SDS011;5365;51.640;8.106;2024-01-15T03:26:23;11.73;;;5.00;;
10633;SDS011;5365;51.640;8.106;2024-01-15T03:29:25;9.88;;;5.30;;
10633;SDS011;5365;51.640;8.106;2024-01-15T03:32:27;12.45;;;5.18;;
10633;SDS011;5365;51.640;8.106;2024-01-15T03:35:29;8.38;;;4.03;;
10633;SDS011;5365;51.640;8.106;2024-01-15T03:38:32;11.25;;;5.25;;
10633;SDS011;5365;51.640;8.106;2024-01-15T03:41:33;7.70;;;4.20;;
10633;SDS011;5365;51.640;8.106;2024-01-15T03:44:35;12.60;;;3.92;;
10633;SDS011;5365;51.640;8.106;2024-01-15T03:47:37;15.93;;;5.00;;
10633;SDS011;5365;51.640;8.106;2024-01-15T03:50:38;31.58;;;6.70;;
10633;SDS011;5365;51.640;8.106;2024-01-15T03:53:40;13.57;;;5.63;;
10633;SDS011;5365;51.640;8.106;2024-01-15T03:56:41;7.88;;;4.05;;
10633;SDS011;5365;51.640;8.106;2024-01-15T03:59:43;13.68;;;4.65;;
10633;SDS011;5365;51.640;8.106;2024-01-15T04:02:45;11.43;;;5.43;;
10633;SDS011;5365;51.640;8.106;2024-01-15T04:05:47;3.88;;;2.90;;
10633;SDS011;5365;51.640;8.106;2024-01-15T04:08:49;23.00;;;9.55;;
10633;SDS011;5365;51.640;8.106;2024-01-15T04:11:50;9.85;;;5.82;;
10633;SDS011;5365;51.640;8.106;2024-01-15T04:14:52;6.65;;;3.17;;
10633;SDS011;5365;51.640;8.106;2024-01-15T04:17:53;7.28;;;4.97;;
10633;SDS011;5365;51.640;8.106;2024-01-15T04:20:55;8.80;;;3.72;;
10633;SDS011;5365;51.640;8.106;2024-01-15T04:23:57;12.10;;;6.07;;
10633;SDS011;5365;51.640;8.106;2024-01-15T04:26:58;17.13;;;6.40;;
10633;SDS011;5365;51.640;8.106;2024-01-15T04:30:00;6.10;;;3.20;;
10633;SDS011;5365;51.640;8.106;2024-01-15T04:33:02;5.82;;;3.72;;
10633;SDS011;5365;51.640;8.106;2024-01-15T04:36:04;16.70;;;6.30;;
10633;SDS011;5365;51.640;8.106;2024-01-15T04:39:06;9.38;;;4.57;;
10633;SDS011;5365;51.640;8.106;2024-01-15T04:42:08;12.68;;;6.30;;
10633;SDS011;5365;51.640;8.106;2024-01-15T04:45:10;6.05;;;2.80;;
10633;SDS011;5365;51.640;8.106;2024-01-15T04:48:12;11.50;;;4.57;;
10633;SDS011;5365;51.640;8.106;2024-01-15T04:51:13;10.48;;;4.95;;
10633;SDS011;5365;51.640;8.106;2024-01-15T04:54:15;14.95;;;6.00;;
10633;SDS011;5365;51.640;8.106;2024-01-15T04:57:19;7.65;;;4.70;;
10633;SDS011;5365;51.640;8.106;2024-01-15T05:00:21;3.83;;;2.53;;
10633;SDS011;5365;51.640;8.106;2024-01-15T05:03:23;13.15;;;3.88;;
10633;SDS011;5365;51.640;8.106;2024-01-15T05:06:25;21.15;;;7.90;;
10633;SDS011;5365;51.640;8.106;2024-01-15T05:09:26;14.98;;;5.25;;
10633;SDS011;5365;51.640;8.106;2024-01-15T05:12:29;15.00;;;7.35;;
10633;SDS011;5365;51.640;8.106;2024-01-15T05:15:31;7.72;;;4.30;;
10633;SDS011;5365;51.640;8.106;2024-01-15T05:18:32;10.93;;;5.90;;
10633;SDS011;5365;51.640;8.106;2024-01-15T05:21:34;9.57;;;4.30;;
10633;SDS011;5365;51.640;8.106;2024-01-15T05:24:36;14.40;;;6.13;;
10633;SDS011;5365;51.640;8.106;2024-01-15T05:27:37;5.75;;;2.97;;
10633;SDS011;5365;51.640;8.106;2024-01-15T05:30:39;11.70;;;4.55;;
10633;SDS011;5365;51.640;8.106;2024-01-15T05:33:41;4.22;;;2.53;;
10633;SDS011;5365;51.640;8.106;2024-01-15T05:36:42;13.00;;;5.35;;
10633;SDS011;5365;51.640;8.106;2024-01-15T05:39:44;6.57;;;3.25;;
10633;SDS011;5365;51.640;8.106;2024-01-15T05:42:46;9.20;;;4.65;;
10633;SDS011;5365;51.640;8.106;2024-01-15T05:45:47;8.75;;;4.13;;
10633;SDS011;5365;51.640;8.106;2024-01-15T05:48:49;2.28;;;2.08;;
10633;SDS011;5365;51.640;8.106;2024-01-15T05:51:51;9.93;;;5.13;;
10633;SDS011;5365;51.640;8.106;2024-01-15T05:54:52;17.15;;;4.50;;
10633;SDS011;5365;51.640;8.106;2024-01-15T05:57:54;7.22;;;3.33;;
10633;SDS011;5365;51.640;8.106;2024-01-15T06:00:56;3.08;;;2.00;;
10633;SDS011;5365;51.640;8.106;2024-01-15T06:03:57;5.95;;;2.47;;
10633;SDS011;5365;51.640;8.106;2024-01-15T06:06:59;7.05;;;3.78;;
10633;SDS011;5365;51.640;8.106;2024-01-15T06:10:01;18.65;;;5.07;;
10633;SDS011;5365;51.640;8.106;2024-01-15T06:13:02;6.55;;;2.85;;
10633;SDS011;5365;51.640;8.106;2024-01-15T06:16:11;5.95;;;3.47;;
10633;SDS011;5365;51.640;8.106;2024-01-15T06:19:13;4.88;;;3.25;;
10633;SDS011;5365;51.640;8.106;2024-01-15T06:22:15;17.23;;;6.78;;
10633;SDS011;5365;51.640;8.106;2024-01-15T06:25:17;10.55;;;2.65;;
10633;SDS011;5365;51.640;8.106;2024-01-15T06:28:18;8.73;;;5.13;;
10633;SDS011;5365;51.640;8.106;2024-01-15T06:31:20;7.88;;;2.88;;
10633;SDS011;5365;51.640;8.106;2024-01-15T06:34:21;6.60;;;4.40;;
10633;SDS011;5365;51.640;8.106;2024-01-15T06:37:23;17.13;;;5.63;;
10633;SDS011;5365;51.640;8.106;2024-01-15T06:40:25;8.50;;;4.80;;
10633;SDS011;5365;51.640;8.106;2024-01-15T06:43:26;8.27;;;3.42;;
10633;SDS011;5365;51.640;8.106;2024-01-15T06:46:28;12.85;;;5.13;;
10633;SDS011;5365;51.640;8.106;2024-01-15T06:49:30;8.63;;;3.90;;
10633;SDS011;5365;51.640;8.106;2024-01-15T06:52:31;7.25;;;3.65;;
10633;SDS011;5365;51.640;8.106;2024-01-15T06:55:33;13.80;;;6.13;;
10633;SDS011;5365;51.640;8.106;2024-01-15T06:58:34;11.18;;;2.35;;
10633;SDS011;5365;51.640;8.106;2024-01-15T07:01:36;6.88;;;3.28;;
10633;SDS011;5365;51.640;8.106;2024-01-15T07:04:38;7.68;;;2.50;;
10633;SDS011;5365;51.640;8.106;2024-01-15T07:07:41;9.18;;;2.67;;
10633;SDS011;5365;51.640;8.106;2024-01-15T07:10:43;7.03;;;2.65;;
10633;SDS011;5365;51.640;8.106;2024-01-15T07:13:44;7.65;;;3.30;;
10633;SDS011;5365;51.640;8.106;2024-01-15T07:16:46;2.25;;;2.05;;
10633;SDS011;5365;51.640;8.106;2024-01-15T07:19:48;6.93;;;2.17;;
10633;SDS011;5365;51.640;8.106;2024-01-15T07:22:50;6.38;;;4.28;;
10633;SDS011;5365;51.640;8.106;2024-01-15T07:25:51;2.63;;;1.63;;
10633;SDS011;5365;51.640;8.106;2024-01-15T07:28:53;6.35;;;3.53;;
10633;SDS011;5365;51.640;8.106;2024-01-15T07:31:55;7.97;;;4.10;;
10633;SDS011;5365;51.640;8.106;2024-01-15T07:34:56;13.73;;;6.00;;
10633;SDS011;5365;51.640;8.106;2024-01-15T07:37:58;4.05;;;2.05;;
10633;SDS011;5365;51.640;8.106;2024-01-15T07:41:00;4.70;;;2.03;;
10633;SDS011;5365;51.640;8.106;2024-01-15T07:44:02;3.33;;;2.13;;
10633;SDS011;5365;51.640;8.106;2024-01-15T07:47:04;6.45;;;2.95;;
10633;SDS011;5365;51.640;8.106;2024-01-15T07:50:05;9.07;;;3.78;;
10633;SDS011;5365;51.640;8.106;2024-01-15T07:53:07;2.85;;;1.80;;
10633;SDS011;5365;51.640;8.106;2024-01-15T07:56:09;5.72;;;3.05;;
10633;SDS011;5365;51.640;8.106;2024-01-15T07:59:11;7.43;;;4.35;;
10633;SDS011;5365;51.640;8.106;2024-01-15T08:02:12;7.13;;;3.08;;
10633;SDS011;5365;51.640;8.106;2024-01-15T08:05:14;2.83;;;1.63;;
10633;SDS011;5365;51.640;8.106;2024-01-15T08:08:15;7.68;;;5.55;;
10633;SDS011;5365;51.640;8.106;2024-01-15T08:11:17;13.82;;;6.28;;
10633;SDS011;5365;51.640;8.106;2024-01-15T08:14:19;2.75;;;1.13;;
10633;SDS011;5365;51.640;8.106;2024-01-15T08:17:20;9.10;;;3.55;;
10633;SDS011;5365;51.640;8.106;2024-01-15T08:20:22;11.82;;;6.15;;
10633;SDS011;5365;51.640;8.106;2024-01-15T08:23:24;6.07;;;3.42;;
10633;SDS011;5365;51.640;8.106;2024-01-15T08:26:26;10.38;;;5.65;;
10633;SDS011;5365;51.640;8.106;2024-01-15T08:29:27;6.75;;;3.08;;
10633;SDS011;5365;51.640;8.106;2024-01-15T08:32:29;3.17;;;2.58;;
10633;SDS011;5365;51.640;8.106;2024-01-15T08:35:31;6.72;;;3.08;;
10633;SDS011;5365;51.640;8.106;2024-01-15T08:38:33;14.10;;;5.63;;
10633;SDS011;5365;51.640;8.106;2024-01-15T08:41:35;6.28;;;3.92;;
10633;SDS011;5365;51.640;8.106;2024-01-15T08:44:37;5.50;;;2.13;;
10633;SDS011;5365;51.640;8.106;2024-01-15T08:47:40;5.35;;;2.22;;
10633;SDS011;5365;51.640;8.106;2024-01-15T08:50:42;4.50;;;2.13;;
10633;SDS011;5365;51.640;8.106;2024-01-15T08:53:44;8.73;;;2.78;;
10633;SDS011;5365;51.640;8.106;2024-01-15T08:56:45;4.38;;;3.85;;
10633;SDS011;5365;51.640;8.106;2024-01-15T08:59:47;10.73;;;3.88;;
10633;SDS011;5365;51.640;8.106;2024-01-15T09:02:49;6.45;;;2.85;;
10633;SDS011;5365;51.640;8.106;2024-01-15T09:05:51;7.03;;;3.08;;
10633;SDS011;5365;51.640;8.106;2024-01-15T09:08:52;2.42;;;1.48;;
10633;SDS011;5365;51.640;8.106;2024-01-15T09:11:54;3.45;;;2.22;;
10633;SDS011;5365;51.640;8.106;2024-01-15T09:14:56;5.13;;;4.72;;
10633;SDS011;5365;51.640;8.106;2024-01-15T09:17:57;4.80;;;3.13;;
10633;SDS011;5365;51.640;8.106;2024-01-15T09:21:00;3.90;;;1.77;;
10633;SDS011;5365;51.640;8.106;2024-01-15T09:24:02;6.05;;;4.15;;
10633;SDS011;5365;51.640;8.106;2024-01-15T09:27:04;5.60;;;2.92;;
10633;SDS011;5365;51.640;8.106;2024-01-15T09:30:05;12.30;;;5.38;;
10633;SDS011;5365;51.640;8.106;2024-01-15T09:33:07;7.22;;;3.97;;
10633;SDS011;5365;51.640;8.106;2024-01-15T09:36:09;4.38;;;2.92;;
10633;SDS011;5365;51.640;8.106;2024-01-15T09:39:11;7.38;;;3.53;;
10633;SDS011;5365;51.640;8.106;2024-01-15T09:42:12;6.60;;;2.83;;
10633;SDS011;5365;51.640;8.106;2024-01-15T09:45:14;9.43;;;3.90;;
10633;SDS011;5365;51.640;8.106;2024-01-15T09:48:16;3.28;;;1.73;;
10633;SDS011;5365;51.640;8.106;2024-01-15T09:51:18;3.60;;;2.85;;
10633;SDS011;5365;51.640;8.106;2024-01-15T09:54:20;8.05;;;3.90;;
10633;SDS011;5365;51.640;8.106;2024-01-15T09:57:22;3.05;;;1.75;;
10633;SDS011;5365;51.640;8.106;2024-01-15T10:00:24;2.72;;;1.52;;
10633;SDS011;5365;51.640;8.106;2024-01-15T10:03:26;6.30;;;3.13;;
10633;SDS011;5365;51.640;8.106;2024-01-15T10:06:28;8.35;;;3.55;;
10633;SDS011;5365;51.640;8.106;2024-01-15T10:09:29;6.93;;;2.35;;
10633;SDS011;5365;51.640;8.106;2024-01-15T10:12:32;5.10;;;2.47;;
10633;SDS011;5365;51.640;8.106;2024-01-15T10:15:34;4.65;;;2.75;;
10633;SDS011;5365;51.640;8.106;2024-01-15T10:18:38;4.03;;;2.97;;
10633;SDS011;5365;51.640;8.106;2024-01-15T10:21:40;6.10;;;2.92;;
10633;SDS011;5365;51.640;8.106;2024-01-15T10:24:42;6.60;;;2.60;;
10633;SDS011;5365;51.640;8.106;2024-01-15T10:27:44;5.00;;;2.08;;
10633;SDS011;5365;51.640;8.106;2024-01-15T10:30:45;2.58;;;1.85;;
10633;SDS011;5365;51.640;8.106;2024-01-15T10:33:50;4.18;;;2.03;;
10633;SDS011;5365;51.640;8.106;2024-01-15T10:36:52;3.38;;;1.95;;
10633;SDS011;5365;51.640;8.106;2024-01-15T10:39:56;1.48;;;1.38;;
10633;SDS011;5365;51.640;8.106;2024-01-15T10:42:59;9.82;;;3.50;;
10633;SDS011;5365;51.640;8.106;2024-01-15T10:46:00;5.22;;;2.80;;
10633;SDS011;5365;51.640;8.106;2024-01-15T10:49:03;9.02;;;3.33;;
10633;SDS011;5365;51.640;8.106;2024-01-15T10:52:05;7.03;;;4.32;;
10633;SDS011;5365;51.640;8.106;2024-01-15T10:55:07;6.78;;;3.25;;
10633;SDS011;5365;51.640;8.106;2024-01-15T10:58:11;5.68;;;2.28;;
10633;SDS011;5365;51.640;8.106;2024-01-15T11:01:14;6.72;;;3.53;;
10633;SDS011;5365;51.640;8.106;2024-01-15T11:04:17;4.93;;;3.25;;
10633;SDS011;5365;51.640;8.106;2024-01-15T11:07:21;4.13;;;2.50;;
10633;SDS011;5365;51.640;8.106;2024-01-15T11:10:42;6.85;;;3.25;;
10633;SDS011;5365;51.640;8.106;2024-01-15T11:13:47;7.20;;;3.88;;
10633;SDS011;5365;51.640;8.106;2024-01-15T11:16:57;3.35;;;2.90;;
10633;SDS011;5365;51.640;8.106;2024-01-15T11:20:00;6.38;;;3.72;;
10633;SDS011;5365;51.640;8.106;2024-01-15T11:23:07;3.20;;;1.77;;
10633;SDS011;5365;51.640;8.106;2024-01-15T11:26:29;7.35;;;2.97;;
10633;SDS011;5365;51.640;8.106;2024-01-15T11:32:33;2.67;;;1.33;;
10633;SDS011;5365;51.640;8.106;2024-01-15T11:35:48;3.15;;;1.85;;
10633;SDS011;5365;51.640;8.106;2024-01-15T11:38:50;3.05;;;1.63;;
10633;SDS011;5365;51.640;8.106;2024-01-15T11:41:51;1.58;;;1.27;;
10633;SDS011;5365;51.640;8.106;2024-01-15T11:44:53;4.18;;;1.42;;
10633;SDS011;5365;51.640;8.106;2024-01-15T11:51:06;4.57;;;2.10;;
10633;SDS011;5365;51.640;8.106;2024-01-15T11:54:09;1.75;;;1.00;;
10633;SDS011;5365;51.640;8.106;2024-01-15T11:57:14;4.80;;;2.85;;
10633;SDS011;5365;51.640;8.106;2024-01-15T12:00:21;1.13;;;1.02;;
10633;SDS011;5365;51.640;8.106;2024-01-15T12:03:23;5.47;;;2.83;;
10633;SDS011;5365;51.640;8.106;2024-01-15T12:06:25;5.05;;;3.13;;
10633;SDS011;5365;51.640;8.106;2024-01-15T12:09:26;3.25;;;2.20;;
10633;SDS011;5365;51.640;8.106;2024-01-15T12:12:33;4.00;;;1.95;;
10633;SDS011;5365;51.640;8.106;2024-01-15T12:15:36;4.72;;;2.67;;
10633;SDS011;5365;51.640;8.106;2024-01-15T12:18:38;3.63;;;2.00;;
10633;SDS011;5365;51.640;8.106;2024-01-15T12:21:39;7.47;;;3.03;;
10633;SDS011;5365;51.640;8.106;2024-01-15T12:24:41;2.35;;;1.73;;
10633;SDS011;5365;51.640;8.106;2024-01-15T12:27:43;4.32;;;1.52;;
10633;SDS011;5365;51.640;8.106;2024-01-15T12:30:46;1.15;;;0.90;;
10633;SDS011;5365;51.640;8.106;2024-01-15T12:33:50;8.10;;;3.90;;
10633;SDS011;5365;51.640;8.106;2024-01-15T12:36:51;1.45;;;0.95;;
10633;SDS011;5365;51.640;8.106;2024-01-15T12:39:53;6.60;;;3.13;;
10633;SDS011;5365;51.640;8.106;2024-01-15T12:42:56;7.95;;;3.10;;
10633;SDS011;5365;51.640;8.106;2024-01-15T12:45:58;3.25;;;1.92;;
10633;SDS011;5365;51.640;8.106;2024-01-15T12:48:59;3.17;;;1.52;;
10633;SDS011;5365;51.640;8.106;2024-01-15T12:52:01;2.00;;;1.20;;
10633;SDS011;5365;51.640;8.106;2024-01-15T12:55:04;3.47;;;1.48;;
10633;SDS011;5365;51.640;8.106;2024-01-15T12:58:06;5.95;;;3.10;;
10633;SDS011;5365;51.640;8.106;2024-01-15T13:01:07;2.55;;;1.80;;
10633;SDS011;5365;51.640;8.106;2024-01-15T13:04:09;1.40;;;0.55;;
10633;SDS011;5365;51.640;8.106;2024-01-15T13:07:11;1.88;;;0.82;;
10633;SDS011;5365;51.640;8.106;2024-01-15T13:10:13;3.92;;;2.20;;
10633;SDS011;5365;51.640;8.106;2024-01-15T13:13:14;4.55;;;1.05;;
10633;SDS011;5365;51.640;8.106;2024-01-15T13:16:16;2.08;;;1.02;;
10633;SDS011;5365;51.640;8.106;2024-01-15T13:19:18;1.88;;;1.10;;
10633;SDS011;5365;51.640;8.106;2024-01-15T13:22:20;1.08;;;0.45;;
10633;SDS011;5365;51.640;8.106;2024-01-15T13:25:22;6.72;;;1.17;;
10633;SDS011;5365;51.640;8.106;2024-01-15T13:28:24;1.02;;;0.70;;
10633;SDS011;5365;51.640;8.106;2024-01-15T13:31:27;2.40;;;1.00;;
10633;SDS011;5365;51.640;8.106;2024-01-15T13:34:29;1.73;;;0.90;;
10633;SDS011;5365;51.640;8.106;2024-01-15T13:37:31;4.88;;;1.98;;
10633;SDS011;5365;51.640;8.106;2024-01-15T13:40:33;1.55;;;0.88;;
10633;SDS011;5365;51.640;8.106;2024-01-15T13:43:34;0.60;;;0.35;;
10633;SDS011;5365;51.640;8.106;2024-01-15T13:46:36;0.60;;;0.30;;
10633;SDS011;5365;51.640;8.106;2024-01-15T13:49:38;1.98;;;0.90;;
10633;SDS011;5365;51.640;8.106;2024-01-15T13:52:40;1.70;;;1.13;;
10633;SDS011;5365;51.640;8.106;2024-01-15T13:55:41;6.47;;;1.15;;
10633;SDS011;5365;51.640;8.106;2024-01-15T13:58:43;3.80;;;2.47;;
10633;SDS011;5365;51.640;8.106;2024-01-15T14:01:45;1.50;;;0.57;;
10633;SDS011;5365;51.640;8.106;2024-01-15T14:04:48;6.85;;;2.38;;
10633;SDS011;5365;51.640;8.106;2024-01-15T14:07:50;1.48;;;1.23;;
10633;SDS011;5365;51.640;8.106;2024-01-15T14:10:51;2.35;;;1.42;;
10633;SDS011;5365;51.640;8.106;2024-01-15T14:13:53;3.55;;;1.65;;
10633;SDS011;5365;51.640;8.106;2024-01-15T14:16:55;2.17;;;1.38;;
10633;SDS011;5365;51.640;8.106;2024-01-15T14:19:57;3.30;;;1.67;;
10633;SDS011;5365;51.640;8.106;2024-01-15T14:22:58;1.27;;;1.10;;
10633;SDS011;5365;51.640;8.106;2024-01-15T14:26:00;1.38;;;0.60;;
10633;SDS011;5365;51.640;8.106;2024-01-15T14:29:02;2.53;;;1.02;;
10633;SDS011;5365;51.640;8.106;2024-01-15T14:32:03;1.75;;;0.77;;
10633;SDS011;5365;51.640;8.106;2024-01-15T14:35:05;1.17;;;0.50;;
10633;SDS011;5365;51.640;8.106;2024-01-15T14:38:07;1.00;;;0.28;;
10633;SDS011;5365;51.640;8.106;2024-01-15T14:41:09;8.07;;;1.63;;
10633;SDS011;5365;51.640;8.106;2024-01-15T14:44:11;1.08;;;0.80;;
10633;SDS011;5365;51.640;8.106;2024-01-15T14:47:13;2.58;;;0.75;;
10633;SDS011;5365;51.640;8.106;2024-01-15T14:50:15;0.52;;;0.38;;
10633;SDS011;5365;51.640;8.106;2024-01-15T14:53:17;0.70;;;0.50;;
10633;SDS011;5365;51.640;8.106;2024-01-15T14:56:19;0.63;;;0.28;;
10633;SDS011;5365;51.640;8.106;2024-01-15T14:59:21;0.22;;;0.15;;
10633;SDS011;5365;51.640;8.106;2024-01-15T15:02:23;0.05;;;0.05;;
10633;SDS011;5365;51.640;8.106;2024-01-15T15:05:25;1.30;;;0.43;;
10633;SDS011;5365;51.640;8.106;2024-01-15T15:08:27;0.45;;;0.22;;
10633;SDS011;5365;51.640;8.106;2024-01-15T15:11:28;0.40;;;0.10;;
10633;SDS011;5365;51.640;8.106;2024-01-15T15:14:30;0.10;;;0.08;;
10633;SDS011;5365;51.640;8.106;2024-01-15T15:17:33;0.38;;;0.30;;
10633;SDS011;5365;51.640;8.106;2024-01-15T15:20:36;0.20;;;0.10;;
10633;SDS011;5365;51.640;8.106;2024-01-15T15:23:37;0.10;;;0.00;;
10633;SDS011;5365;51.640;8.106;2024-01-15T15:26:42;1.27;;;0.55;;
10633;SDS011;5365;51.640;8.106;2024-01-15T15:29:44;0.30;;;0.30;;
10633;SDS011;5365;51.640;8.106;2024-01-15T15:32:46;2.20;;;1.10;;
10633;SDS011;5365;51.640;8.106;2024-01-15T15:35:48;1.25;;;0.55;;
10633;SDS011;5365;51.640;8.106;2024-01-15T15:38:52;1.60;;;0.82;;
10633;SDS011;5365;51.640;8.106;2024-01-15T15:41:55;0.40;;;0.20;;
10633;SDS011;5365;51.640;8.106;2024-01-15T15:44:57;1.05;;;0.30;;
10633;SDS011;5365;51.640;8.106;2024-01-15T15:47:59;0.25;;;0.20;;
10633;SDS011;5365;51.640;8.106;2024-01-15T15:51:01;0.43;;;0.35;;
10633;SDS011;5365;51.640;8.106;2024-01-15T15:54:04;1.90;;;0.75;;
10633;SDS011;5365;51.640;8.106;2024-01-15T15:57:06;1.52;;;0.70;;
10633;SDS011;5365;51.640;8.106;2024-01-15T16:00:12;0.68;;;0.40;;
10633;SDS011;5365;51.640;8.106;2024-01-15T16:03:14;2.63;;;0.85;;
10633;SDS011;5365;51.640;8.106;2024-01-15T16:06:16;2.42;;;0.98;;
10633;SDS011;5365;51.640;8.106;2024-01-15T16:09:18;1.50;;;0.45;;
10633;SDS011;5365;51.640;8.106;2024-01-15T16:12:19;4.68;;;0.40;;
10633;SDS011;5365;51.640;8.106;2024-01-15T16:15:21;2.00;;;0.40;;
10633;SDS011;5365;51.640;8.106;2024-01-15T16:18:23;2.25;;;1.17;;
10633;SDS011;5365;51.640;8.106;2024-01-15T16:21:45;0.68;;;0.22;;
10633;SDS011;5365;51.640;8.106;2024-01-15T16:25:07;2.17;;;0.60;;
10633;SDS011;5365;51.640;8.106;2024-01-15T16:28:09;7.97;;;1.23;;
10633;SDS011;5365;51.640;8.106;2024-01-15T16:31:11;0.80;;;0.43;;
10633;SDS011;5365;51.640;8.106;2024-01-15T16:34:13;0.77;;;0.40;;
10633;SDS011;5365;51.640;8.106;2024-01-15T16:37:14;3.00;;;0.83;;
10633;SDS011;5365;51.640;8.106;2024-01-15T16:40:16;2.38;;;1.23;;
10633;SDS011;5365;51.640;8.106;2024-01-15T16:43:19;2.25;;;0.75;;
10633;SDS011;5365;51.640;8.106;2024-01-15T16:46:21;7.72;;;1.15;;
10633;SDS011;5365;51.640;8.106;2024-01-15T16:49:23;0.93;;;0.50;;
10633;SDS011;5365;51.640;8.106;2024-01-15T16:52:24;0.45;;;0.35;;
10633;SDS011;5365;51.640;8.106;2024-01-15T16:55:26;1.77;;;0.60;;
10633;SDS011;5365;51.640;8.106;2024-01-15T16:58:28;1.58;;;0.70;;
10633;SDS011;5365;51.640;8.106;2024-01-15T17:01:30;4.90;;;1.25;;
10633;SDS011;5365;51.640;8.106;2024-01-15T17:04:31;4.15;;;0.85;;
10633;SDS011;5365;51.640;8.106;2024-01-15T17:07:33;2.30;;;0.90;;
10633;SDS011;5365;51.640;8.106;2024-01-15T17:10:35;0.57;;;0.20;;
10633;SDS011;5365;51.640;8.106;2024-01-15T17:13:38;0.47;;;0.20;;
10633;SDS011;5365;51.640;8.106;2024-01-15T17:16:40;1.75;;;0.60;;
10633;SDS011;5365;51.640;8.106;2024-01-15T17:19:42;4.05;;;1.08;;
10633;SDS011;5365;51.640;8.106;2024-01-15T17:22:43;1.10;;;0.63;;
10633;SDS011;5365;51.640;8.106;2024-01-15T17:25:45;0.43;;;0.43;;
10633;SDS011;5365;51.640;8.106;2024-01-15T17:28:47;3.78;;;0.93;;
10633;SDS011;5365;51.640;8.106;2024-01-15T17:31:48;6.65;;;1.08;;
10633;SDS011;5365;51.640;8.106;2024-01-15T17:34:50;0.85;;;0.50;;
10633;SDS011;5365;51.640;8.106;2024-01-15T17:37:52;7.82;;;1.00;;
10633;SDS011;5365;51.640;8.106;2024-01-15T17:40:53;2.88;;;0.75;;
10633;SDS011;5365;51.640;8.106;2024-01-15T17:43:56;0.55;;;0.40;;
10633;SDS011;5365;51.640;8.106;2024-01-15T17:46:57;1.95;;;0.32;;
10633;SDS011;5365;51.640;8.106;2024-01-15T17:49:59;1.52;;;0.80;;
10633;SDS011;5365;51.640;8.106;2024-01-15T17:53:01;2.72;;;1.30;;
10633;SDS011;5365;51.640;8.106;2024-01-15T17:56:03;1.20;;;0.82;;
10633;SDS011;5365;51.640;8.106;2024-01-15T17:59:05;4.60;;;1.52;;
10633;SDS011;5365;51.640;8.106;2024-01-15T18:02:07;3.78;;;1.85;;
10633;SDS011;5365;51.640;8.106;2024-01-15T18:05:10;3.47;;;1.63;;
10633;SDS011;5365;51.640;8.106;2024-01-15T18:08:12;3.80;;;2.15;;
10633;SDS011;5365;51.640;8.106;2024-01-15T18:11:17;11.10;;;3.22;;
10633;SDS011;5365;51.640;8.106;2024-01-15T18:14:19;4.45;;;2.15;;
10633;SDS011;5365;51.640;8.106;2024-01-15T18:17:20;3.03;;;1.40;;
10633;SDS011;5365;51.640;8.106;2024-01-15T18:20:22;3.80;;;1.48;;
10633;SDS011;5365;51.640;8.106;2024-01-15T18:23:24;2.95;;;1.63;;
10633;SDS011;5365;51.640;8.106;2024-01-15T18:26:26;5.22;;;3.00;;
10633;SDS011;5365;51.640;8.106;2024-01-15T18:29:27;2.00;;;1.20;;
10633;SDS011;5365;51.640;8.106;2024-01-15T18:32:29;1.95;;;1.65;;
10633;SDS011;5365;51.640;8.106;2024-01-15T18:35:31;3.72;;;2.30;;